createdAt,value
2022-09-23T00:00:27.519Z,9.34
2022-09-23T00:01:28.513Z,9.34
2022-09-23T00:02:27.853Z,9.34
2022-09-23T00:03:28.070Z,9.34
2022-09-23T00:04:27.606Z,9.35
2022-09-23T00:05:28.683Z,9.35
2022-09-23T00:06:34.810Z,9.35
2022-09-23T00:07:27.482Z,9.36
2022-09-23T00:08:27.464Z,9.36
2022-09-23T00:09:27.512Z,9.36
2022-09-23T00:10:27.458Z,9.36
2022-09-23T00:11:29.365Z,9.36
2022-09-23T00:12:27.430Z,9.36
2022-09-23T00:13:27.456Z,9.36
2022-09-23T00:14:27.452Z,9.35
2022-09-23T00:15:27.597Z,9.34
2022-09-23T00:16:28.833Z,9.33
2022-09-23T00:17:29.175Z,9.33
2022-09-23T00:18:32.735Z,9.32
2022-09-23T00:19:27.265Z,9.32
2022-09-23T00:20:29.477Z,9.32
2022-09-23T00:21:27.335Z,9.32
2022-09-23T00:22:49.578Z,9.31
2022-09-23T00:23:27.301Z,9.31
2022-09-23T00:24:27.467Z,9.31
2022-09-23T00:25:27.854Z,9.30
2022-09-23T00:26:27.520Z,9.30
2022-09-23T00:27:28.253Z,9.30
2022-09-23T00:28:28.932Z,9.29
2022-09-23T00:29:30.365Z,9.28
2022-09-23T00:30:27.391Z,9.27
2022-09-23T00:31:27.158Z,9.26
2022-09-23T00:32:28.074Z,9.25
2022-09-23T00:33:27.271Z,9.24
2022-09-23T00:34:27.378Z,9.22
2022-09-23T00:35:27.340Z,9.21
2022-09-23T00:36:27.182Z,9.19
2022-09-23T00:37:28.309Z,9.18
2022-09-23T00:38:27.040Z,9.16
2022-09-23T00:39:27.137Z,9.15
2022-09-23T00:40:27.385Z,9.14
2022-09-23T00:41:27.054Z,9.13
2022-09-23T00:42:26.936Z,9.12
2022-09-23T00:43:30.724Z,9.11
2022-09-23T00:44:26.943Z,9.10
2022-09-23T00:45:36.465Z,9.09
2022-09-23T00:46:27.013Z,9.08
2022-09-23T00:47:26.947Z,9.08
2022-09-23T00:48:26.972Z,9.07
2022-09-23T00:49:55.374Z,9.07
2022-09-23T00:50:26.931Z,9.07
2022-09-23T00:51:27.992Z,9.07
2022-09-23T00:52:26.997Z,9.08
2022-09-23T00:53:27.250Z,9.08
2022-09-23T00:54:26.905Z,9.08
2022-09-23T00:55:29.061Z,9.09
2022-09-23T00:56:32.062Z,9.09
2022-09-23T00:57:27.040Z,9.09
2022-09-23T00:58:33.199Z,9.10
2022-09-23T00:59:26.835Z,9.10
2022-09-23T01:00:27.799Z,9.09
2022-09-23T01:01:27.103Z,9.08
2022-09-23T01:02:27.103Z,9.07
2022-09-23T01:03:26.693Z,9.06
2022-09-23T01:04:29.660Z,9.05
2022-09-23T01:05:27.831Z,9.05
2022-09-23T01:06:27.796Z,9.04
2022-09-23T01:07:26.621Z,9.04
2022-09-23T01:08:26.805Z,9.03
2022-09-23T01:09:33.081Z,9.03
2022-09-23T01:10:28.751Z,9.02
2022-09-23T01:11:27.818Z,9.01
2022-09-23T01:12:26.727Z,9.00
2022-09-23T01:13:26.752Z,8.99
2022-09-23T01:14:26.630Z,8.97
2022-09-23T01:15:26.663Z,8.96
2022-09-23T01:16:39.705Z,8.95
2022-09-23T01:17:26.750Z,8.93
2022-09-23T01:18:26.565Z,8.92
2022-09-23T01:19:26.483Z,8.90
2022-09-23T01:20:26.645Z,8.88
2022-09-23T01:21:32.766Z,8.87
2022-09-23T01:22:27.776Z,8.86
2022-09-23T01:23:26.588Z,8.84
2022-09-23T01:24:26.499Z,8.83
2022-09-23T01:25:26.846Z,8.81
2022-09-23T01:26:27.388Z,8.80
2022-09-23T01:27:26.783Z,8.78
2022-09-23T01:28:26.577Z,8.76
2022-09-23T01:29:26.494Z,8.75
2022-09-23T01:30:27.407Z,8.74
2022-09-23T01:31:33.071Z,8.72
2022-09-23T01:32:30.498Z,8.71
2022-09-23T01:33:26.523Z,8.69
2022-09-23T01:34:26.564Z,8.67
2022-09-23T01:35:26.419Z,8.66
2022-09-23T01:36:26.415Z,8.64
2022-09-23T01:37:47.862Z,8.63
2022-09-23T01:38:27.501Z,8.62
2022-09-23T01:39:32.171Z,8.61
2022-09-23T01:40:26.430Z,8.60
2022-09-23T01:41:27.503Z,8.58
2022-09-23T01:42:26.341Z,8.57
2022-09-23T01:43:34.463Z,8.56
2022-09-23T01:44:27.231Z,8.55
2022-09-23T01:45:27.241Z,8.54
2022-09-23T01:46:26.165Z,8.53
2022-09-23T01:47:26.501Z,8.52
2022-09-23T01:48:26.246Z,8.51
2022-09-23T01:49:33.614Z,8.51
2022-09-23T01:50:28.144Z,8.51
2022-09-23T01:51:26.182Z,8.50
2022-09-23T01:52:26.173Z,8.50
2022-09-23T01:53:26.140Z,8.50
2022-09-23T01:54:27.334Z,8.49
2022-09-23T01:55:26.189Z,8.48
2022-09-23T01:56:26.034Z,8.47
2022-09-23T01:57:26.109Z,8.46
2022-09-23T01:58:25.974Z,8.45
2022-09-23T01:59:29.108Z,8.45
2022-09-23T02:00:27.208Z,8.44
2022-09-23T02:01:25.950Z,8.43
2022-09-23T02:02:29.387Z,8.42
2022-09-23T02:03:25.927Z,8.41
2022-09-23T02:04:27.849Z,8.40
2022-09-23T02:05:26.004Z,8.39
2022-09-23T02:06:26.124Z,8.38
2022-09-23T02:07:26.663Z,8.37
2022-09-23T02:08:25.904Z,8.36
2022-09-23T02:09:26.791Z,8.35
2022-09-23T02:10:26.076Z,8.34
2022-09-23T02:11:25.827Z,8.33
2022-09-23T02:12:26.931Z,8.33
2022-09-23T02:13:25.838Z,8.32
2022-09-23T02:14:25.966Z,8.32
2022-09-23T02:15:26.714Z,8.31
2022-09-23T02:16:26.074Z,8.31
2022-09-23T02:17:25.913Z,8.31
2022-09-23T02:18:25.918Z,8.30
2022-09-23T02:19:25.720Z,8.30
2022-09-23T02:20:26.892Z,8.30
2022-09-23T02:21:25.734Z,8.30
2022-09-23T02:22:26.181Z,8.30
2022-09-23T02:23:25.909Z,8.31
2022-09-23T02:24:25.856Z,8.31
2022-09-23T02:25:26.677Z,8.31
2022-09-23T02:26:25.795Z,8.31
2022-09-23T02:27:25.643Z,8.31
2022-09-23T02:28:25.666Z,8.32
2022-09-23T02:29:25.643Z,8.32
2022-09-23T02:30:25.691Z,8.32
2022-09-23T02:31:26.529Z,8.32
2022-09-23T02:32:25.589Z,8.32
2022-09-23T02:33:25.813Z,8.33
2022-09-23T02:34:25.558Z,8.33
2022-09-23T02:35:25.617Z,8.33
2022-09-23T02:36:25.836Z,8.34
2022-09-23T02:37:31.917Z,8.34
2022-09-23T02:38:25.498Z,8.35
2022-09-23T02:39:25.444Z,8.35
2022-09-23T02:40:25.750Z,8.35
2022-09-23T02:41:26.101Z,8.34
2022-09-23T02:42:27.716Z,8.34
2022-09-23T02:43:25.462Z,8.34
2022-09-23T02:44:26.239Z,8.35
2022-09-23T02:45:25.456Z,8.35
2022-09-23T02:46:25.494Z,8.35
2022-09-23T02:47:25.425Z,8.35
2022-09-23T02:48:52.591Z,8.35
2022-09-23T02:49:25.427Z,8.34
2022-09-23T02:50:27.644Z,8.34
2022-09-23T02:51:25.593Z,8.33
2022-09-23T02:52:26.710Z,8.32
2022-09-23T02:53:25.341Z,8.32
2022-09-23T02:54:29.878Z,8.32
2022-09-23T02:55:25.411Z,8.31
2022-09-23T02:56:25.233Z,8.31
2022-09-23T02:57:25.278Z,8.31
2022-09-23T02:58:25.334Z,8.31
2022-09-23T02:59:25.245Z,8.31
2022-09-23T03:00:26.670Z,8.31
2022-09-23T03:01:26.293Z,8.31
2022-09-23T03:02:25.297Z,8.32
2022-09-23T03:03:25.318Z,8.32
2022-09-23T03:04:25.094Z,8.32
2022-09-23T03:05:25.279Z,8.32
2022-09-23T03:06:26.073Z,8.32
2022-09-23T03:07:28.032Z,8.32
2022-09-23T03:08:26.607Z,8.32
2022-09-23T03:09:26.732Z,8.32
2022-09-23T03:10:26.135Z,8.32
2022-09-23T03:11:27.255Z,8.31
2022-09-23T03:12:25.186Z,8.31
2022-09-23T03:13:36.499Z,8.31
2022-09-23T03:14:25.243Z,8.31
2022-09-23T03:15:28.558Z,8.31
2022-09-23T03:16:25.102Z,8.31
2022-09-23T03:17:59.733Z,8.31
2022-09-23T03:18:25.378Z,8.31
2022-09-23T03:19:32.709Z,8.30
2022-09-23T03:20:25.037Z,8.30
2022-09-23T03:22:08.552Z,9.41
2022-09-23T03:23:15.065Z,8.96
2022-09-23T03:24:09.926Z,8.66
2022-09-23T03:25:08.509Z,8.48
2022-09-23T03:26:08.635Z,8.38
2022-09-23T03:27:08.611Z,8.32
2022-09-23T03:28:09.226Z,8.28
2022-09-23T03:29:08.544Z,8.26
2022-09-23T03:30:08.441Z,8.24
2022-09-23T03:31:09.195Z,8.23
2022-09-23T03:32:13.019Z,8.23
2022-09-23T03:33:09.751Z,8.22
2022-09-23T03:34:15.456Z,8.22
2022-09-23T03:35:08.907Z,8.22
2022-09-23T03:36:10.023Z,8.21
2022-09-23T03:37:09.473Z,8.21
2022-09-23T03:38:09.183Z,8.21
2022-09-23T03:39:09.145Z,8.20
2022-09-23T03:40:08.517Z,8.20
2022-09-23T03:41:08.211Z,8.19
2022-09-23T03:42:08.168Z,8.18
2022-09-23T03:43:08.133Z,8.18
2022-09-23T03:44:08.092Z,8.17
2022-09-23T03:45:10.259Z,8.16
2022-09-23T03:46:09.367Z,8.15
2022-09-23T03:47:09.221Z,8.14
2022-09-23T03:48:08.183Z,8.13
2022-09-23T03:49:09.141Z,8.13
2022-09-23T03:50:10.441Z,8.12
2022-09-23T03:51:11.748Z,8.11
2022-09-23T03:52:09.741Z,8.10
2022-09-23T03:53:09.274Z,8.09
2022-09-23T03:54:14.373Z,8.08
2022-09-23T03:55:08.662Z,8.08
2022-09-23T03:56:09.364Z,8.07
2022-09-23T03:57:09.040Z,8.06
2022-09-23T03:58:08.149Z,8.05
2022-09-23T03:59:08.233Z,8.04
2022-09-23T04:00:08.927Z,8.03
2022-09-23T04:01:19.975Z,8.02
2022-09-23T04:02:10.487Z,8.00
2022-09-23T04:03:11.545Z,7.98
2022-09-23T04:04:07.854Z,7.95
2022-09-23T04:05:08.032Z,7.92
2022-09-23T04:06:08.538Z,7.90
2022-09-23T04:07:08.797Z,7.87
2022-09-23T04:08:08.113Z,7.85
2022-09-23T04:09:08.057Z,7.84
2022-09-23T04:10:07.852Z,7.82
2022-09-23T04:11:07.676Z,7.82
2022-09-23T04:12:09.143Z,7.81
2022-09-23T04:13:07.946Z,7.81
2022-09-23T04:14:09.099Z,7.80
2022-09-23T04:15:07.831Z,7.80
2022-09-23T04:16:08.808Z,7.80
2022-09-23T04:17:08.717Z,7.80
2022-09-23T04:18:07.771Z,7.80
2022-09-23T04:19:11.478Z,7.80
2022-09-23T04:20:07.810Z,7.79
2022-09-23T04:21:07.662Z,7.79
2022-09-23T04:22:16.542Z,7.78
2022-09-23T04:23:07.582Z,7.77
2022-09-23T04:24:14.491Z,7.77
2022-09-23T04:25:08.515Z,7.76
2022-09-23T04:26:07.517Z,7.76
2022-09-23T04:27:08.162Z,7.75
2022-09-23T04:28:08.481Z,7.75
2022-09-23T04:29:14.138Z,7.73
2022-09-23T04:30:07.728Z,7.72
2022-09-23T04:31:07.760Z,7.71
2022-09-23T04:32:08.584Z,7.69
2022-09-23T04:33:07.750Z,7.67
2022-09-23T04:34:32.056Z,7.65
2022-09-23T04:35:07.393Z,7.63
2022-09-23T04:36:08.312Z,7.62
2022-09-23T04:37:07.520Z,7.61
2022-09-23T04:38:07.679Z,7.60
2022-09-23T04:39:07.799Z,7.60
2022-09-23T04:40:08.337Z,7.60
2022-09-23T04:41:07.368Z,7.60
2022-09-23T04:42:07.355Z,7.60
2022-09-23T04:43:12.876Z,7.60
2022-09-23T04:44:09.175Z,7.61
2022-09-23T04:45:08.551Z,7.61
2022-09-23T04:46:07.568Z,7.61
2022-09-23T04:47:54.285Z,7.61
2022-09-23T04:48:09.262Z,7.60
2022-09-23T04:49:08.065Z,7.60
2022-09-23T04:50:07.738Z,7.59
2022-09-23T04:51:10.571Z,7.58
2022-09-23T04:52:07.501Z,7.58
2022-09-23T04:53:07.981Z,7.57
2022-09-23T04:54:09.599Z,7.56
2022-09-23T04:55:11.213Z,7.56
2022-09-23T04:56:08.479Z,7.55
2022-09-23T04:57:07.237Z,7.55
2022-09-23T04:58:13.434Z,7.55
2022-09-23T04:59:08.566Z,7.55
2022-09-23T05:00:08.246Z,7.56
2022-09-23T05:01:08.434Z,7.57
2022-09-23T05:02:07.289Z,7.57
2022-09-23T05:03:07.716Z,7.59
2022-09-23T05:04:06.993Z,7.59
2022-09-23T05:05:07.367Z,7.60
2022-09-23T05:06:10.803Z,7.61
2022-09-23T05:07:15.461Z,7.62
2022-09-23T05:08:07.091Z,7.62
2022-09-23T05:09:07.217Z,7.63
2022-09-23T05:10:06.977Z,7.64
2022-09-23T05:11:08.023Z,7.65
2022-09-23T05:12:08.458Z,7.66
2022-09-23T05:13:07.090Z,7.68
2022-09-23T05:14:13.524Z,7.69
2022-09-23T05:15:07.279Z,7.71
2022-09-23T05:16:07.043Z,7.72
2022-09-23T05:17:07.097Z,7.74
2022-09-23T05:18:07.820Z,7.76
2022-09-23T05:19:08.036Z,7.77
2022-09-23T05:20:07.185Z,7.78
2022-09-23T05:21:07.289Z,7.79
2022-09-23T05:22:13.200Z,7.80
2022-09-23T05:23:08.219Z,7.81
2022-09-23T05:24:07.057Z,7.82
2022-09-23T05:25:07.181Z,7.83
2022-09-23T05:26:07.742Z,7.84
2022-09-23T05:27:06.867Z,7.86
2022-09-23T05:28:07.331Z,7.87
2022-09-23T05:29:09.113Z,7.88
2022-09-23T05:30:06.900Z,7.90
2022-09-23T05:31:09.722Z,7.91
2022-09-23T05:32:06.828Z,7.93
2022-09-23T05:33:06.745Z,7.95
2022-09-23T05:34:06.712Z,7.96
2022-09-23T05:35:07.690Z,7.98
2022-09-23T05:36:07.065Z,7.99
2022-09-23T05:37:09.092Z,8.01
2022-09-23T05:38:07.522Z,8.03
2022-09-23T05:39:07.812Z,8.04
2022-09-23T05:40:07.646Z,8.06
2022-09-23T05:41:08.270Z,8.07
2022-09-23T05:42:06.587Z,8.09
2022-09-23T05:43:06.948Z,8.10
2022-09-23T05:44:06.563Z,8.11
2022-09-23T05:45:16.113Z,8.13
2022-09-23T05:46:12.903Z,8.14
2022-09-23T05:47:06.549Z,8.16
2022-09-23T05:48:06.530Z,8.17
2022-09-23T05:49:06.600Z,8.19
2022-09-23T05:50:08.094Z,8.21
2022-09-23T05:51:06.556Z,8.22
2022-09-23T05:52:12.896Z,8.24
2022-09-23T05:53:07.067Z,8.25
2022-09-23T05:54:07.014Z,8.27
2022-09-23T05:55:12.149Z,8.29
2022-09-23T05:56:06.813Z,8.31
2022-09-23T05:57:07.197Z,8.32
2022-09-23T05:58:06.869Z,8.34
2022-09-23T05:59:06.978Z,8.36
2022-09-23T06:00:07.802Z,8.37
2022-09-23T06:01:13.785Z,8.39
2022-09-23T06:02:14.475Z,8.41
2022-09-23T06:03:07.939Z,8.43
2022-09-23T06:04:07.616Z,8.44
2022-09-23T06:05:06.617Z,8.46
2022-09-23T06:06:39.068Z,8.47
2022-09-23T06:07:07.533Z,8.49
2022-09-23T06:08:06.529Z,8.51
2022-09-23T06:09:06.465Z,8.53
2022-09-23T06:10:06.305Z,8.55
2022-09-23T06:11:06.606Z,8.57
2022-09-23T06:12:07.189Z,8.59
2022-09-23T06:13:08.111Z,8.61
2022-09-23T06:14:06.407Z,8.63
2022-09-23T06:15:06.428Z,8.65
2022-09-23T06:16:06.241Z,8.67
2022-09-23T06:17:06.292Z,8.69
2022-09-23T06:18:07.426Z,8.71
2022-09-23T06:19:07.194Z,8.73
2022-09-23T06:20:07.065Z,8.75
2022-09-23T06:21:06.227Z,8.78
2022-09-23T06:22:06.202Z,8.80
2022-09-23T06:23:08.849Z,8.82
2022-09-23T06:24:07.249Z,8.84
2022-09-23T06:25:07.193Z,8.86
2022-09-23T06:26:06.159Z,8.88
2022-09-23T06:27:11.207Z,8.90
2022-09-23T06:28:06.136Z,8.92
2022-09-23T06:29:07.771Z,8.93
2022-09-23T06:30:07.105Z,8.95
2022-09-23T06:31:12.265Z,8.97
2022-09-23T06:32:07.897Z,8.99
2022-09-23T06:33:06.275Z,9.01
2022-09-23T06:34:11.932Z,9.04
2022-09-23T06:35:20.565Z,9.06
2022-09-23T06:36:07.932Z,9.09
2022-09-23T06:37:15.510Z,9.12
2022-09-23T06:38:07.378Z,9.14
2022-09-23T06:39:05.950Z,9.16
2022-09-23T06:40:06.933Z,9.19
2022-09-23T06:41:06.964Z,9.22
2022-09-23T06:42:05.953Z,9.25
2022-09-23T06:43:05.824Z,9.28
2022-09-23T06:44:07.083Z,9.31
2022-09-23T06:45:06.211Z,9.34
2022-09-23T06:46:12.126Z,9.37
2022-09-23T06:47:06.949Z,9.41
2022-09-23T06:48:05.998Z,9.44
2022-09-23T06:49:05.936Z,9.47
2022-09-23T06:50:23.969Z,9.50
2022-09-23T06:51:05.978Z,9.53
2022-09-23T06:52:05.886Z,9.55
2022-09-23T06:53:07.770Z,9.57
2022-09-23T06:54:06.928Z,9.59
2022-09-23T06:55:06.263Z,9.61
2022-09-23T06:56:07.518Z,9.63
2022-09-23T06:57:08.752Z,9.66
2022-09-23T06:58:07.876Z,9.69
2022-09-23T06:59:05.757Z,9.72
2022-09-23T07:00:06.661Z,9.75
2022-09-23T07:01:06.176Z,9.78
2022-09-23T07:02:08.543Z,9.82
2022-09-23T07:03:07.087Z,9.85
2022-09-23T07:04:08.062Z,9.88
2022-09-23T07:05:07.403Z,9.92
2022-09-23T07:06:06.775Z,9.95
2022-09-23T07:07:05.677Z,9.99
2022-09-23T07:08:06.516Z,10.02
2022-09-23T07:09:12.509Z,10.06
2022-09-23T07:10:05.681Z,10.09
2022-09-23T07:11:05.644Z,10.12
2022-09-23T07:12:27.362Z,10.16
2022-09-23T07:13:05.519Z,10.19
2022-09-23T07:14:06.558Z,10.23
2022-09-23T07:15:07.365Z,10.26
2022-09-23T07:16:06.597Z,10.30
2022-09-23T07:17:06.323Z,10.33
2022-09-23T07:18:05.577Z,10.37
2022-09-23T07:19:08.159Z,10.40
2022-09-23T07:20:07.803Z,10.43
2022-09-23T07:21:06.327Z,10.47
2022-09-23T07:22:05.630Z,10.50
2022-09-23T07:23:18.134Z,10.53
2022-09-23T07:24:05.835Z,10.57
2022-09-23T07:25:06.903Z,10.60
2022-09-23T07:26:07.198Z,10.64
2022-09-23T07:27:06.481Z,10.67
2022-09-23T07:28:06.485Z,10.71
2022-09-23T07:29:05.730Z,10.74
2022-09-23T07:30:07.528Z,10.78
2022-09-23T07:31:06.286Z,10.81
2022-09-23T07:32:13.176Z,10.85
2022-09-23T07:33:27.083Z,10.88
2022-09-23T07:34:07.319Z,10.92
2022-09-23T07:35:05.618Z,10.95
2022-09-23T07:36:05.256Z,10.99
2022-09-23T07:37:06.228Z,11.02
2022-09-23T07:38:14.938Z,11.06
2022-09-23T07:39:13.380Z,11.10
2022-09-23T07:40:07.235Z,11.14
2022-09-23T07:41:05.058Z,11.17
2022-09-23T07:42:31.350Z,11.20
2022-09-23T07:43:12.898Z,11.24
2022-09-23T07:44:06.389Z,11.27
2022-09-23T07:45:05.760Z,11.31
2022-09-23T07:46:05.661Z,11.34
2022-09-23T07:47:06.707Z,11.38
2022-09-23T07:48:05.084Z,11.42
2022-09-23T07:49:08.839Z,11.45
2022-09-23T07:50:05.658Z,11.49
2022-09-23T07:51:06.643Z,11.52
2022-09-23T07:52:05.443Z,11.55
2022-09-23T07:53:05.631Z,11.59
2022-09-23T07:54:14.558Z,11.62
2022-09-23T07:55:04.944Z,11.65
2022-09-23T07:56:05.517Z,11.69
2022-09-23T07:57:05.148Z,11.72
2022-09-23T07:58:19.181Z,11.76
2022-09-23T07:59:15.579Z,11.79
2022-09-23T08:00:15.885Z,11.82
2022-09-23T08:01:05.778Z,11.86
2022-09-23T08:02:08.954Z,11.89
2022-09-23T08:03:06.621Z,11.93
2022-09-23T08:04:07.002Z,11.97
2022-09-23T08:05:05.860Z,12.01
2022-09-23T08:06:04.929Z,12.04
2022-09-23T08:07:05.320Z,12.08
2022-09-23T08:08:05.876Z,12.12
2022-09-23T08:09:07.727Z,12.15
2022-09-23T08:10:13.093Z,12.19
2022-09-23T08:11:15.191Z,12.23
2022-09-23T08:12:05.038Z,12.26
2022-09-23T08:13:04.769Z,12.30
2022-09-23T08:14:06.683Z,12.33
2022-09-23T08:15:05.811Z,12.37
2022-09-23T08:16:06.116Z,12.40
2022-09-23T08:17:04.644Z,12.44
2022-09-23T08:18:05.471Z,12.47
2022-09-23T08:19:12.706Z,12.51
2022-09-23T08:20:05.752Z,12.54
2022-09-23T08:21:06.311Z,12.58
2022-09-23T08:22:04.673Z,12.61
2022-09-23T08:23:10.243Z,12.65
2022-09-23T08:24:06.857Z,12.68
2022-09-23T08:25:06.608Z,12.72
2022-09-23T08:26:16.198Z,12.75
2022-09-23T08:27:07.806Z,12.78
2022-09-23T08:28:04.475Z,12.80
2022-09-23T08:29:04.295Z,12.83
2022-09-23T08:30:06.497Z,12.85
2022-09-23T08:31:05.435Z,12.88
2022-09-23T08:32:04.506Z,12.90
2022-09-23T08:33:12.293Z,12.92
2022-09-23T08:34:08.916Z,12.94
2022-09-23T08:35:04.506Z,12.97
2022-09-23T08:36:06.337Z,12.99
2022-09-23T08:37:06.265Z,13.01
2022-09-23T08:38:04.425Z,13.04
2022-09-23T08:39:12.150Z,13.06
2022-09-23T08:40:04.387Z,13.08
2022-09-23T08:41:10.693Z,13.11
2022-09-23T08:42:05.259Z,13.14
2022-09-23T08:43:04.652Z,13.17
2022-09-23T08:44:07.841Z,13.20
2022-09-23T08:45:04.817Z,13.23
2022-09-23T08:46:05.748Z,13.27
2022-09-23T08:47:05.318Z,13.30
2022-09-23T08:48:06.057Z,13.34
2022-09-23T08:49:12.031Z,13.37
2022-09-23T08:50:05.416Z,13.40
2022-09-23T08:51:04.488Z,13.43
2022-09-23T08:52:04.313Z,13.46
2022-09-23T08:53:04.199Z,13.49
2022-09-23T08:54:06.062Z,13.52
2022-09-23T08:55:14.680Z,13.54
2022-09-23T08:56:04.197Z,13.57
2022-09-23T08:57:04.443Z,13.60
2022-09-23T08:58:24.367Z,13.63
2022-09-23T08:59:06.119Z,13.66
2022-09-23T09:00:04.281Z,13.69
2022-09-23T09:01:10.572Z,13.72
2022-09-23T09:02:06.254Z,13.75
2022-09-23T09:03:05.271Z,13.79
2022-09-23T09:04:04.293Z,13.82
2022-09-23T09:05:05.723Z,13.84
2022-09-23T09:06:04.978Z,13.87
2022-09-23T09:07:31.686Z,13.90
2022-09-23T09:08:06.139Z,13.92
2022-09-23T09:09:04.211Z,13.95
2022-09-23T09:10:04.280Z,13.97
2022-09-23T09:11:04.460Z,14.00
2022-09-23T09:12:04.004Z,14.03
2022-09-23T09:13:12.238Z,14.05
2022-09-23T09:14:05.197Z,14.09
2022-09-23T09:15:04.773Z,14.12
2022-09-23T09:16:04.543Z,14.16
2022-09-23T09:17:04.913Z,14.19
2022-09-23T09:18:04.995Z,14.23
2022-09-23T09:19:04.024Z,14.27
2022-09-23T09:20:05.713Z,14.31
2022-09-23T09:21:05.667Z,14.35
2022-09-23T09:22:03.695Z,14.39
2022-09-23T09:23:05.939Z,14.43
2022-09-23T09:24:04.370Z,14.47
2022-09-23T09:25:05.767Z,14.51
2022-09-23T09:26:03.938Z,14.54
2022-09-23T09:27:05.369Z,14.58
2022-09-23T09:28:10.483Z,14.62
2022-09-23T09:29:17.094Z,14.66
2022-09-23T09:30:05.192Z,14.70
2022-09-23T09:31:04.183Z,14.73
2022-09-23T09:32:03.802Z,14.77
2022-09-23T09:33:04.905Z,14.81
2022-09-23T09:34:04.839Z,14.84
2022-09-23T09:35:03.524Z,14.87
2022-09-23T09:36:03.708Z,14.91
2022-09-23T09:37:07.003Z,14.93
2022-09-23T09:38:10.263Z,14.96
2022-09-23T09:39:03.849Z,14.99
2022-09-23T09:40:04.733Z,15.01
2022-09-23T09:41:03.762Z,15.03
2022-09-23T09:42:03.549Z,15.06
2022-09-23T09:43:03.931Z,15.09
2022-09-23T09:44:08.361Z,15.11
2022-09-23T09:45:05.561Z,15.14
2022-09-23T09:46:03.854Z,15.17
2022-09-23T09:47:03.554Z,15.19
2022-09-23T09:48:04.418Z,15.22
2022-09-23T09:49:03.362Z,15.24
2022-09-23T09:50:03.625Z,15.27
2022-09-23T09:51:09.903Z,15.31
2022-09-23T09:52:03.840Z,15.34
2022-09-23T09:53:04.374Z,15.38
2022-09-23T09:54:04.443Z,15.42
2022-09-23T09:55:03.695Z,15.46
2022-09-23T09:56:05.251Z,15.50
2022-09-23T09:57:04.526Z,15.55
2022-09-23T09:58:03.214Z,15.59
2022-09-23T09:59:03.793Z,15.64
2022-09-23T10:00:03.635Z,15.69
2022-09-23T10:01:03.571Z,15.74
2022-09-23T10:02:04.192Z,15.80
2022-09-23T10:03:03.410Z,15.86
2022-09-23T10:04:06.222Z,15.92
2022-09-23T10:05:03.169Z,15.97
2022-09-23T10:06:03.431Z,16.03
2022-09-23T10:07:03.944Z,16.10
2022-09-23T10:08:04.604Z,16.16
2022-09-23T10:09:03.145Z,16.23
2022-09-23T10:10:15.959Z,16.30
2022-09-23T10:11:04.072Z,16.37
2022-09-23T10:12:03.219Z,16.44
2022-09-23T10:13:05.522Z,16.50
2022-09-23T10:14:05.013Z,16.56
2022-09-23T10:15:10.357Z,16.61
2022-09-23T10:16:04.844Z,16.65
2022-09-23T10:17:03.018Z,16.69
2022-09-23T10:18:04.184Z,16.73
2022-09-23T10:19:03.098Z,16.77
2022-09-23T10:20:03.988Z,16.80
2022-09-23T10:21:04.552Z,16.83
2022-09-23T10:22:03.185Z,16.87
2022-09-23T10:23:04.766Z,16.90
2022-09-23T10:24:04.054Z,16.93
2022-09-23T10:25:03.217Z,16.96
2022-09-23T10:26:03.831Z,16.98
2022-09-23T10:27:03.135Z,17.01
2022-09-23T10:28:07.944Z,17.04
2022-09-23T10:29:03.830Z,17.07
2022-09-23T10:30:04.146Z,17.10
2022-09-23T10:31:03.749Z,17.13
2022-09-23T10:32:04.353Z,17.16
2022-09-23T10:33:06.605Z,17.19
2022-09-23T10:34:03.837Z,17.22
2022-09-23T10:35:11.432Z,17.24
2022-09-23T10:36:03.832Z,17.27
2022-09-23T10:37:04.112Z,17.30
2022-09-23T10:38:03.637Z,17.33
2022-09-23T10:39:03.718Z,17.37
2022-09-23T10:40:02.755Z,17.40
2022-09-23T10:41:04.227Z,17.44
2022-09-23T10:42:03.805Z,17.47
2022-09-23T10:43:03.851Z,17.50
2022-09-23T10:44:03.651Z,17.53
2022-09-23T10:45:02.973Z,17.56
2022-09-23T10:46:50.956Z,18.77
2022-09-23T10:47:50.989Z,18.34
2022-09-23T10:48:51.228Z,18.07
2022-09-23T10:49:54.212Z,17.93
2022-09-23T10:50:50.631Z,17.86
2022-09-23T10:51:51.813Z,17.84
2022-09-23T10:52:51.729Z,17.84
2022-09-23T10:53:50.824Z,17.85
2022-09-23T10:54:50.842Z,17.88
2022-09-23T10:55:50.403Z,17.92
2022-09-23T10:56:59.247Z,17.95
2022-09-23T10:57:51.619Z,17.99
2022-09-23T10:58:50.351Z,18.01
2022-09-23T10:59:50.324Z,18.04
2022-09-23T11:01:11.476Z,18.08
2022-09-23T11:01:51.185Z,18.12
2022-09-23T11:02:52.520Z,18.17
2022-09-23T11:03:50.584Z,18.21
2022-09-23T11:04:52.185Z,18.27
2022-09-23T11:05:50.567Z,18.32
2022-09-23T11:06:50.593Z,18.37
2022-09-23T11:07:50.730Z,18.42
2022-09-23T11:08:57.006Z,18.47
2022-09-23T11:09:50.854Z,18.53
2022-09-23T11:10:50.297Z,18.58
2022-09-23T11:11:50.225Z,18.64
2022-09-23T11:12:50.804Z,18.70
2022-09-23T11:13:54.605Z,18.75
2022-09-23T11:14:50.928Z,18.80
2022-09-23T11:15:54.878Z,18.85
2022-09-23T11:16:58.823Z,18.89
2022-09-23T11:17:50.656Z,18.93
2022-09-23T11:18:52.772Z,18.96
2022-09-23T11:19:50.306Z,18.99
2022-09-23T11:20:51.376Z,19.01
2022-09-23T11:21:50.320Z,19.02
2022-09-23T11:22:51.746Z,19.03
2022-09-23T11:23:52.890Z,19.04
2022-09-23T11:24:50.713Z,19.04
2022-09-23T11:25:51.000Z,19.05
2022-09-23T11:26:51.621Z,19.04
2022-09-23T11:27:50.470Z,19.02
2022-09-23T11:28:51.175Z,19.00
2022-09-23T11:29:51.299Z,18.99
2022-09-23T11:30:51.392Z,18.97
2022-09-23T11:31:50.658Z,18.96
2022-09-23T11:32:50.581Z,18.95
2022-09-23T11:33:50.760Z,18.95
2022-09-23T11:34:54.826Z,18.96
2022-09-23T11:35:50.234Z,18.97
2022-09-23T11:36:50.309Z,18.98
2022-09-23T11:37:55.675Z,18.99
2022-09-23T11:38:52.210Z,19.00
2022-09-23T11:39:51.761Z,19.02
2022-09-23T11:40:51.818Z,19.02
2022-09-23T11:41:49.940Z,19.04
2022-09-23T11:42:50.061Z,19.05
2022-09-23T11:43:51.141Z,19.07
2022-09-23T11:44:50.433Z,19.08
2022-09-23T11:45:59.623Z,19.10
2022-09-23T11:46:52.211Z,19.12
2022-09-23T11:47:49.951Z,19.14
2022-09-23T11:48:49.941Z,19.15
2022-09-23T11:49:51.339Z,19.16
2022-09-23T11:50:49.918Z,19.16
2022-09-23T11:51:57.882Z,19.16
2022-09-23T11:52:51.223Z,19.15
2022-09-23T11:53:50.737Z,19.14
2022-09-23T11:54:50.194Z,19.13
2022-09-23T11:55:57.071Z,19.11
2022-09-23T11:56:52.176Z,19.09
2022-09-23T11:57:50.931Z,19.06
2022-09-23T11:58:57.014Z,19.04
2022-09-23T11:59:52.080Z,19.02
2022-09-23T12:00:53.691Z,18.99
2022-09-23T12:01:53.554Z,18.97
2022-09-23T12:03:04.711Z,18.95
2022-09-23T12:03:52.019Z,18.93
2022-09-23T12:04:58.818Z,18.91
2022-09-23T12:05:49.688Z,18.90
2022-09-23T12:06:50.552Z,18.89
2022-09-23T12:07:50.871Z,18.87
2022-09-23T12:08:50.679Z,18.86
2022-09-23T12:09:58.513Z,18.85
2022-09-23T12:10:49.729Z,18.84
2022-09-23T12:11:49.780Z,18.85
2022-09-23T12:12:56.518Z,18.85
2022-09-23T12:13:50.044Z,18.85
2022-09-23T12:14:51.834Z,18.86
2022-09-23T12:15:50.374Z,18.86
2022-09-23T12:16:50.472Z,18.86
2022-09-23T12:17:49.593Z,18.87
2022-09-23T12:18:56.025Z,18.88
2022-09-23T12:19:50.203Z,18.90
2022-09-23T12:20:49.335Z,18.92
2022-09-23T12:21:56.069Z,18.94
2022-09-23T12:22:49.504Z,18.96
2022-09-23T12:23:49.218Z,18.98
2022-09-23T12:24:50.970Z,19.01
2022-09-23T12:25:50.395Z,19.05
2022-09-23T12:26:50.172Z,19.07
2022-09-23T12:27:49.961Z,19.09
2022-09-23T12:28:50.147Z,19.11
2022-09-23T12:29:49.371Z,19.13
2022-09-23T12:30:50.478Z,19.17
2022-09-23T12:31:49.161Z,19.21
2022-09-23T12:32:49.266Z,19.26
2022-09-23T12:33:49.590Z,19.31
2022-09-23T12:34:50.207Z,19.36
2022-09-23T12:35:59.971Z,19.41
2022-09-23T12:36:49.658Z,19.45
2022-09-23T12:37:49.108Z,19.49
2022-09-23T12:38:49.445Z,19.52
2022-09-23T12:39:49.754Z,19.56
2022-09-23T12:40:54.674Z,19.59
2022-09-23T12:41:50.241Z,19.63
2022-09-23T12:42:49.263Z,19.67
2022-09-23T12:43:50.217Z,19.70
2022-09-23T12:44:50.129Z,19.74
2022-09-23T12:45:51.342Z,19.77
2022-09-23T12:46:48.997Z,19.81
2022-09-23T12:47:50.028Z,19.87
2022-09-23T12:48:49.078Z,19.97
2022-09-23T12:49:49.425Z,20.18
2022-09-23T12:50:50.043Z,20.66
2022-09-23T12:51:56.684Z,21.52
2022-09-23T12:52:49.078Z,22.63
2022-09-23T12:53:49.354Z,23.80
2022-09-23T12:54:50.316Z,24.94
2022-09-23T12:55:49.335Z,26.00
2022-09-23T12:56:49.955Z,26.93
2022-09-23T12:57:49.964Z,27.74
2022-09-23T12:58:48.785Z,28.42
2022-09-23T12:59:48.803Z,28.98
2022-09-23T13:00:49.830Z,29.45
2022-09-23T13:01:48.946Z,29.86
2022-09-23T13:02:50.437Z,30.22
2022-09-23T13:03:49.943Z,30.54
2022-09-23T13:04:49.492Z,30.83
2022-09-23T13:05:49.958Z,31.06
2022-09-23T13:06:49.614Z,31.24
2022-09-23T13:07:48.704Z,31.36